Notice: Undefined index: language in /home/u484346964/domains/flybondivirtual.com.ar/public_html/vam/index.php on line 26
Virtual Airlines Manager

 METAR AND TAF INFORMATION
METAR FOR SARC
ADDS - METARS form results

(0025 UTC 25 August 2019)
Data provider http://aviationweather.gov/metar/data/
 
METAR text: SARC 250000Z 11007KT 8000 NSC 19/12 Q1017
Conditions at: SARC (CORRIENTES AIRPO, AR) observed 0000 UTC 25 August 2019
Temperature: 19.0°C (66°F)
Dewpoint: 12.0°C (54°F) [RH = 64%]
Pressure (altimeter): 30.03 inches Hg (1017.0 mb)
Winds: from the ESE (110 degrees) at 8 MPH (7 knots; 3.6 m/s)
Visibility: 5 miles ( 8 km)
Ceiling: at least 12,000 feet AGL
Clouds: sky clear below 12,000 feet AGL
Weather: no significant weather observed at this time

 AIRPORT MAP

 RUNWAY INFORMATION
Runway 2 Runway length 6890 ft Runway width 148 ft
Runway elevation 202 ft Runway displaced threshold 0 ft Runway heading 8
Runway 20 Runway length 6890 ft Runway width 148 ft
Runway elevation 199 ft Runway displaced threshold 0 ft Runway heading 188

 AIRPORT FREQUENCIES
Type TWR Name TWR Frequency 118.3 MHZ

 AIRPORT NEAR NAVIGATION AIDS
Type NDB Name Corrientes Frequency 305 KHZ
Type VOR-DME Name Corrientes Frequency 115400 KHZ



Powered by Virtual Airlines Manager [v2.6.2]